Time;durP1;ratioP1;P1;durP2;ratioP2;P2;SDS_P1;SDS_P2;PMS_P1;PMS_P2;Temp;Humidity;BMP_temperature;BMP_pressure;BME280_temperature;BME280_humidity;BME280_pressure;Samples;Min_cycle;Max_cycle;Signal;HPM_P1;HPM_P2
2024/01/02 00:00:19;;;;;;;;;;;;;;;;;;5074401;28;19916;-86
2024/01/02 00:02:44;;;;;;;;;;;;;;;;;;5081197;28;19909;-85
2024/01/02 00:05:09;;;;;;;;;;;;;;;;;;5074118;28;19961;-86
2024/01/02 00:07:35;;;;;;;;;;;;;;;;;;5075125;28;19915;-84
2024/01/02 00:10:00;;;;;;;;;;;;;;;;;;5075192;28;20379;-84
2024/01/02 00:12:25;;;;;;;;;;;;;;;;;;5074786;28;19912;-85
2024/01/02 00:14:50;;;;;;;;;;;;;;;;;;5072761;28;20033;-84
2024/01/02 00:17:15;;;;;;;;;;;;;;;;;;5070395;28;19935;-85
2024/01/02 00:19:40;;;;;;;;;;;;;;;;;;5075059;28;19908;-85
2024/01/02 00:22:05;;;;;;;;;;;;;;;;;;5074997;28;20397;-84
2024/01/02 00:24:31;;;;;;;;;;;;;;;;;;5078818;28;19909;-85
2024/01/02 00:26:56;;;;;;;;;;;;;;;;;;5077774;28;20073;-84
2024/01/02 00:29:21;;;;;;;;;;;;;;;;;;5078728;28;19908;-84
2024/01/02 00:31:46;;;;;;;;;;;;;;;;;;5078484;28;19915;-84
2024/01/02 00:34:12;;;;;;;;;;;;;;;;;;5077136;28;19917;-84
2024/01/02 00:36:37;;;;;;;;;;;;;;;;;;5078738;28;19913;-84
2024/01/02 00:39:02;;;;;;;;;;;;;;;;;;5086780;28;20389;-84
2024/01/02 00:41:27;;;;;;;;;;;;;;;;;;5076763;28;19909;-84
2024/01/02 00:43:52;;;;;;;;;;;;;;;;;;5076728;28;19915;-84
2024/01/02 00:46:17;;;;;;;;;;;;;;;;;;5078343;28;20351;-85
2024/01/02 00:48:43;;;;;;;;;;;;;;;;;;5078974;28;19908;-84
2024/01/02 00:51:08;;;;;;;;;;;;;;;;;;5077237;28;19917;-84
2024/01/02 00:53:33;;;;;;;;;;;;;;;;;;5078211;28;19915;-84
2024/01/02 00:56:00;;;;;;;;;;;;;;;;;;5076400;28;19916;-84
2024/01/02 00:58:25;;;;;;;;;;;;;;;;;;5076225;28;20015;-84
2024/01/02 01:00:50;;;;;;;;;;;;;;;;;;5077795;28;19947;-84
2024/01/02 01:03:15;;;;;;;;;;;;;;;;;;5078067;28;20426;-84
2024/01/02 01:05:40;;;;;;;;;;;;;;;;;;5078234;28;19915;-84
2024/01/02 01:08:05;;;;;;;;;;;;;;;;;;5076275;28;20003;-83
2024/01/02 01:10:31;;;;;;;;;;;;;;;;;;5068935;28;19966;-83
2024/01/02 01:12:56;;;;;;;;;;;;;;;;;;5072587;28;19912;-83
2024/01/02 01:15:21;;;;;;;;;;;;;;;;;;5074492;28;19912;-83
2024/01/02 01:17:46;;;;;;;;;;;;;;;;;;5073388;28;19915;-83
2024/01/02 01:20:11;;;;;;;;;;;;;;;;;;5073299;28;19909;-84
2024/01/02 01:22:36;;;;;;;;;;;;;;;;;;5074061;28;19920;-84
2024/01/02 01:25:01;;;;;;;;;;;;;;;;;;5081256;28;19915;-83
2024/01/02 01:27:26;;;;;;;;;;;;;;;;;;5074396;28;19912;-83
2024/01/02 01:29:51;;;;;;;;;;;;;;;;;;5074238;28;19908;-83
2024/01/02 01:32:17;;;;;;;;;;;;;;;;;;5074006;28;20141;-83
2024/01/02 01:34:42;;;;;;;;;;;;;;;;;;5071591;28;20441;-84
2024/01/02 01:37:07;;;;;;;;;;;;;;;;;;5072702;28;20291;-83
2024/01/02 01:39:32;;;;;;;;;;;;;;;;;;5072777;28;19920;-84
2024/01/02 01:41:57;;;;;;;;;;;;;;;;;;5072840;28;19909;-83
2024/01/02 01:44:23;;;;;;;;;;;;;;;;;;5072858;28;19909;-83
2024/01/02 01:46:48;;;;;;;;;;;;;;;;;;5072918;28;19915;-84
2024/01/02 01:49:13;;;;;;;;;;;;;;;;;;5072880;28;19916;-83
2024/01/02 01:51:38;;;;;;;;;;;;;;;;;;5073804;28;19908;-83
2024/01/02 01:54:03;;;;;;;;;;;;;;;;;;5073989;28;19915;-83
2024/01/02 01:56:28;;;;;;;;;;;;;;;;;;5073679;28;19913;-83
2024/01/02 01:58:53;;;;;;;;;;;;;;;;;;5072689;28;19908;-83
2024/01/02 02:01:18;;;;;;;;;;;;;;;;;;5072262;28;19951;-83
2024/01/02 02:03:43;;;;;;;;;;;;;;;;;;5072654;28;19999;-83
2024/01/02 02:06:08;;;;;;;;;;;;;;;;;;5073772;28;19931;-83
2024/01/02 02:08:34;;;;;;;;;;;;;;;;;;5073460;28;19942;-84
2024/01/02 02:10:59;;;;;;;;;;;;;;;;;;5072066;28;20000;-83
2024/01/02 02:13:24;;;;;;;;;;;;;;;;;;5072443;28;19915;-83
2024/01/02 02:15:49;;;;;;;;;;;;;;;;;;5072035;28;20386;-84
2024/01/02 02:18:14;;;;;;;;;;;;;;;;;;5072296;28;19908;-84
2024/01/02 02:20:39;;;;;;;;;;;;;;;;;;5073698;28;19999;-83
2024/01/02 02:23:04;;;;;;;;;;;;;;;;;;5071326;28;19999;-83
2024/01/02 02:25:29;;;;;;;;;;;;;;;;;;5071869;28;19908;-83
2024/01/02 02:27:55;;;;;;;;;;;;;;;;;;5071681;28;19909;-83
2024/01/02 02:30:20;;;;;;;;;;;;;;;;;;5071840;28;19956;-83
2024/01/02 02:32:45;;;;;;;;;;;;;;;;;;5071501;28;20104;-83
2024/01/02 02:35:10;;;;;;;;;;;;;;;;;;5071500;28;19948;-83
2024/01/02 02:37:35;;;;;;;;;;;;;;;;;;5072754;28;20393;-83
2024/01/02 02:40:00;;;;;;;;;;;;;;;;;;5072673;28;19908;-84
2024/01/02 02:42:25;;;;;;;;;;;;;;;;;;5072379;28;19962;-83
2024/01/02 02:44:50;;;;;;;;;;;;;;;;;;5071199;28;19909;-83
2024/01/02 02:47:15;;;;;;;;;;;;;;;;;;5072459;28;19908;-83
2024/01/02 02:49:40;;;;;;;;;;;;;;;;;;5072640;28;19908;-83
2024/01/02 02:52:06;;;;;;;;;;;;;;;;;;5070854;28;19908;-83
2024/01/02 02:54:31;;;;;;;;;;;;;;;;;;5072461;28;20381;-83
2024/01/02 02:56:56;;;;;;;;;;;;;;;;;;5072271;28;19913;-83
2024/01/02 02:59:21;;;;;;;;;;;;;;;;;;5072175;28;20302;-83
2024/01/02 03:01:46;;;;;;;;;;;;;;;;;;5072061;28;19916;-83
2024/01/02 03:04:11;;;;;;;;;;;;;;;;;;5071080;28;19909;-83
2024/01/02 03:06:36;;;;;;;;;;;;;;;;;;5072304;28;19932;-83
2024/01/02 03:09:03;;;;;;;;;;;;;;;;;;5070640;28;19909;-83
2024/01/02 03:11:28;;;;;;;;;;;;;;;;;;5070819;28;19908;-83
2024/01/02 03:13:53;;;;;;;;;;;;;;;;;;5072307;28;20333;-82
2024/01/02 03:16:18;;;;;;;;;;;;;;;;;;5070737;28;19956;-83
2024/01/02 03:18:43;;;;;;;;;;;;;;;;;;5070791;28;19908;-83
2024/01/02 03:21:09;;;;;;;;;;;;;;;;;;5071856;28;19978;-82
2024/01/02 03:23:34;;;;;;;;;;;;;;;;;;5071987;28;19962;-83
2024/01/02 03:25:59;;;;;;;;;;;;;;;;;;5070693;28;19912;-83
2024/01/02 03:28:24;;;;;;;;;;;;;;;;;;5071387;28;19916;-83
2024/01/02 03:30:49;;;;;;;;;;;;;;;;;;5071064;28;19908;-83
2024/01/02 03:33:15;;;;;;;;;;;;;;;;;;5071847;28;19916;-83
2024/01/02 03:35:40;;;;;;;;;;;;;;;;;;5071685;28;19920;-83
2024/01/02 03:38:05;;;;;;;;;;;;;;;;;;5071741;28;19909;-83
2024/01/02 03:40:31;;;;;;;;;;;;;;;;;;5070636;28;19913;-83
2024/01/02 03:42:56;;;;;;;;;;;;;;;;;;5071474;28;20016;-82
2024/01/02 03:45:21;;;;;;;;;;;;;;;;;;5070419;28;20384;-83
2024/01/02 03:47:46;;;;;;;;;;;;;;;;;;5070525;28;19912;-82
2024/01/02 03:50:11;;;;;;;;;;;;;;;;;;5071778;28;19909;-83
2024/01/02 03:52:37;;;;;;;;;;;;;;;;;;5070099;28;19974;-82
2024/01/02 03:55:02;;;;;;;;;;;;;;;;;;5071503;28;20375;-82
2024/01/02 03:57:27;;;;;;;;;;;;;;;;;;5070776;28;19938;-83
2024/01/02 03:59:52;;;;;;;;;;;;;;;;;;5075698;28;20456;-82
2024/01/02 04:02:17;;;;;;;;;;;;;;;;;;5075408;28;19912;-82
2024/01/02 04:04:43;;;;;;;;;;;;;;;;;;5075634;28;19909;-83
2024/01/02 04:07:08;;;;;;;;;;;;;;;;;;5074305;28;20084;-82
2024/01/02 04:09:33;;;;;;;;;;;;;;;;;;5074202;28;19999;-83
2024/01/02 04:11:58;;;;;;;;;;;;;;;;;;5073674;28;19912;-83
2024/01/02 04:14:23;;;;;;;;;;;;;;;;;;5074268;28;20366;-83
2024/01/02 04:16:48;;;;;;;;;;;;;;;;;;5074033;28;19913;-83
2024/01/02 04:19:13;;;;;;;;;;;;;;;;;;5075346;28;19915;-83
2024/01/02 04:21:38;;;;;;;;;;;;;;;;;;5075110;28;19916;-83
2024/01/02 04:24:03;;;;;;;;;;;;;;;;;;5074036;28;19915;-83
2024/01/02 04:26:28;;;;;;;;;;;;;;;;;;5074121;28;20007;-83
2024/01/02 04:28:53;;;;;;;;;;;;;;;;;;5075248;28;19915;-83
2024/01/02 04:31:19;;;;;;;;;;;;;;;;;;5075254;28;19944;-83
2024/01/02 04:33:44;;;;;;;;;;;;;;;;;;5075433;28;19920;-84
2024/01/02 04:36:09;;;;;;;;;;;;;;;;;;5073955;28;19979;-83
2024/01/02 04:38:35;;;;;;;;;;;;;;;;;;5075310;28;19908;-84
2024/01/02 04:41:01;;;;;;;;;;;;;;;;;;5073740;28;19912;-84
2024/01/02 04:43:27;;;;;;;;;;;;;;;;;;5075305;28;19919;-84
2024/01/02 04:45:52;;;;;;;;;;;;;;;;;;5073751;28;19958;-84
2024/01/02 04:48:17;;;;;;;;;;;;;;;;;;5076155;28;20351;-84
2024/01/02 04:50:42;;;;;;;;;;;;;;;;;;5075075;28;19908;-84
2024/01/02 04:53:07;;;;;;;;;;;;;;;;;;5073427;28;19958;-84
2024/01/02 04:55:32;;;;;;;;;;;;;;;;;;5074836;28;20098;-84
2024/01/02 04:57:57;;;;;;;;;;;;;;;;;;5073510;28;20302;-83
2024/01/02 05:00:22;;;;;;;;;;;;;;;;;;5073674;28;19908;-84
2024/01/02 05:02:47;;;;;;;;;;;;;;;;;;5074558;28;20406;-84
2024/01/02 05:05:12;;;;;;;;;;;;;;;;;;5074926;28;19908;-84
2024/01/02 05:07:37;;;;;;;;;;;;;;;;;;5073473;28;19908;-84
2024/01/02 05:10:03;;;;;;;;;;;;;;;;;;5082614;28;19943;-83
2024/01/02 05:12:28;;;;;;;;;;;;;;;;;;5074361;28;20399;-84
2024/01/02 05:14:53;;;;;;;;;;;;;;;;;;5074350;28;19908;-84
2024/01/02 05:17:19;;;;;;;;;;;;;;;;;;5073305;28;19913;-83
2024/01/02 05:19:44;;;;;;;;;;;;;;;;;;5074364;28;19978;-84
2024/01/02 05:22:09;;;;;;;;;;;;;;;;;;5072875;28;20433;-84
2024/01/02 05:24:34;;;;;;;;;;;;;;;;;;5073027;28;19951;-83
2024/01/02 05:26:59;;;;;;;;;;;;;;;;;;5074008;28;19912;-84
2024/01/02 05:29:24;;;;;;;;;;;;;;;;;;5072769;28;19999;-84
2024/01/02 05:31:49;;;;;;;;;;;;;;;;;;5074060;28;19916;-84
2024/01/02 05:34:15;;;;;;;;;;;;;;;;;;5074180;28;20019;-84
2024/01/02 05:36:40;;;;;;;;;;;;;;;;;;5072810;28;19912;-84
2024/01/02 05:39:05;;;;;;;;;;;;;;;;;;5072487;28;19947;-84
2024/01/02 05:41:30;;;;;;;;;;;;;;;;;;5072439;28;19909;-84
2024/01/02 05:43:55;;;;;;;;;;;;;;;;;;5072688;28;19945;-84
2024/01/02 05:46:20;;;;;;;;;;;;;;;;;;5072891;28;20283;-84
2024/01/02 05:48:45;;;;;;;;;;;;;;;;;;5074631;28;19990;-84
2024/01/02 05:51:10;;;;;;;;;;;;;;;;;;5073414;28;20001;-84
2024/01/02 05:53:35;;;;;;;;;;;;;;;;;;5072386;28;20003;-84
2024/01/02 05:56:00;;;;;;;;;;;;;;;;;;5072032;28;19912;-85
2024/01/02 05:58:26;;;;;;;;;;;;;;;;;;5072342;28;19908;-83
2024/01/02 06:00:51;;;;;;;;;;;;;;;;;;5071851;28;19908;-83
2024/01/02 06:03:16;;;;;;;;;;;;;;;;;;5072263;28;19943;-84
2024/01/02 06:05:41;;;;;;;;;;;;;;;;;;5073280;28;19944;-84
2024/01/02 06:08:06;;;;;;;;;;;;;;;;;;5071731;28;19916;-83
2024/01/02 06:10:31;;;;;;;;;;;;;;;;;;5071778;28;19962;-84
2024/01/02 06:12:56;;;;;;;;;;;;;;;;;;5071601;28;20022;-84
2024/01/02 06:15:21;;;;;;;;;;;;;;;;;;5073211;28;19927;-83
2024/01/02 06:17:47;;;;;;;;;;;;;;;;;;5071903;28;19917;-83
2024/01/02 06:20:12;;;;;;;;;;;;;;;;;;5071424;28;19915;-84
2024/01/02 06:22:40;;;;;;;;;;;;;;;;;;5071277;28;19913;-83
2024/01/02 06:25:08;;;;;;;;;;;;;;;;;;5071517;28;19915;-84
2024/01/02 06:27:33;;;;;;;;;;;;;;;;;;5071999;28;19915;-84
2024/01/02 06:29:58;;;;;;;;;;;;;;;;;;5071519;28;19909;-83
2024/01/02 06:32:23;;;;;;;;;;;;;;;;;;5072708;28;19913;-83
2024/01/02 06:34:48;;;;;;;;;;;;;;;;;;5071356;28;19916;-84
2024/01/02 06:37:13;;;;;;;;;;;;;;;;;;5071440;28;19912;-83
2024/01/02 06:39:38;;;;;;;;;;;;;;;;;;5071322;28;19908;-84
2024/01/02 06:42:03;;;;;;;;;;;;;;;;;;5071104;28;19908;-83
2024/01/02 06:44:28;;;;;;;;;;;;;;;;;;5072681;28;20391;-83
2024/01/02 06:46:53;;;;;;;;;;;;;;;;;;5072314;28;19909;-83
2024/01/02 06:49:19;;;;;;;;;;;;;;;;;;5071159;28;20437;-83
2024/01/02 06:51:44;;;;;;;;;;;;;;;;;;5072159;28;19908;-83
2024/01/02 06:54:09;;;;;;;;;;;;;;;;;;5071042;28;19919;-84
2024/01/02 06:56:34;;;;;;;;;;;;;;;;;;5071366;28;20008;-84
2024/01/02 06:58:59;;;;;;;;;;;;;;;;;;5071000;28;20404;-84
2024/01/02 07:01:24;;;;;;;;;;;;;;;;;;5072179;28;20390;-83
2024/01/02 07:03:49;;;;;;;;;;;;;;;;;;5071018;28;19909;-83
2024/01/02 07:06:15;;;;;;;;;;;;;;;;;;5071424;28;20267;-85
2024/01/02 07:08:40;;;;;;;;;;;;;;;;;;5072276;28;19912;-84
2024/01/02 07:11:05;;;;;;;;;;;;;;;;;;5071744;28;19915;-84
2024/01/02 07:13:30;;;;;;;;;;;;;;;;;;5071137;28;20390;-84
2024/01/02 07:15:55;;;;;;;;;;;;;;;;;;5071023;28;19923;-84
2024/01/02 07:18:20;;;;;;;;;;;;;;;;;;5070914;28;19944;-84
2024/01/02 07:20:46;;;;;;;;;;;;;;;;;;5070524;28;20394;-83
2024/01/02 07:23:11;;;;;;;;;;;;;;;;;;5071484;28;19909;-84
2024/01/02 07:25:36;;;;;;;;;;;;;;;;;;5071548;28;19970;-84
2024/01/02 07:28:01;;;;;;;;;;;;;;;;;;5072863;28;19913;-85
2024/01/02 07:30:26;;;;;;;;;;;;;;;;;;5072761;28;20295;-84
2024/01/02 07:32:51;;;;;;;;;;;;;;;;;;5070563;28;19917;-84
2024/01/02 07:35:16;;;;;;;;;;;;;;;;;;5072507;28;20318;-85
2024/01/02 07:37:41;;;;;;;;;;;;;;;;;;5070751;28;20296;-85
2024/01/02 07:40:07;;;;;;;;;;;;;;;;;;5070541;28;19916;-84
2024/01/02 07:42:32;;;;;;;;;;;;;;;;;;5070791;28;20367;-85
2024/01/02 07:44:57;;;;;;;;;;;;;;;;;;5072236;28;20371;-85
2024/01/02 07:47:23;;;;;;;;;;;;;;;;;;5071225;28;19948;-84
2024/01/02 07:49:48;;;;;;;;;;;;;;;;;;5070981;28;20442;-84
2024/01/02 07:52:13;;;;;;;;;;;;;;;;;;5072128;28;19987;-85
2024/01/02 07:54:41;;;;;;;;;;;;;;;;;;5070936;28;19915;-84
2024/01/02 07:57:06;;;;;;;;;;;;;;;;;;5070857;28;19919;-85
2024/01/02 07:59:31;;;;;;;;;;;;;;;;;;5070704;28;19908;-85
2024/01/02 08:01:56;;;;;;;;;;;;;;;;;;5070343;28;19914;-84
2024/01/02 08:04:23;;;;;;;;;;;;;;;;;;5070735;28;19999;-84
2024/01/02 08:06:49;;;;;;;;;;;;;;;;;;5070627;28;19909;-84
2024/01/02 08:09:14;;;;;;;;;;;;;;;;;;5070512;28;19913;-84
2024/01/02 08:11:39;;;;;;;;;;;;;;;;;;5070722;28;19908;-84
2024/01/02 08:14:04;;;;;;;;;;;;;;;;;;5070426;28;19931;-84
2024/01/02 08:16:29;;;;;;;;;;;;;;;;;;5070525;28;19955;-84
2024/01/02 08:18:56;;;;;;;;;;;;;;;;;;5070428;28;19991;-90
2024/01/02 08:21:21;;;;;;;;;;;;;;;;;;5070179;28;19909;-84
2024/01/02 08:23:47;;;;;;;;;;;;;;;;;;5070241;28;19911;-85
2024/01/02 08:26:12;;;;;;;;;;;;;;;;;;5070293;28;19915;-84
2024/01/02 08:28:38;;;;;;;;;;;;;;;;;;5071685;28;19908;-84
2024/01/02 08:31:03;;;;;;;;;;;;;;;;;;5069894;28;19989;-85
2024/01/02 08:33:28;;;;;;;;;;;;;;;;;;5071681;28;20341;-86
2024/01/02 08:35:53;;;;;;;;;;;;;;;;;;5070277;28;20431;-85
2024/01/02 08:38:19;;;;;;;;;;;;;;;;;;5070128;28;19974;-85
2024/01/02 08:40:44;;;;;;;;;;;;;;;;;;5070297;28;20121;-83
2024/01/02 08:43:09;;;;;;;;;;;;;;;;;;5079804;28;19932;-85
2024/01/02 08:45:34;;;;;;;;;;;;;;;;;;5066301;28;20389;-85
2024/01/02 08:47:59;;;;;;;;;;;;;;;;;;5072765;28;19909;-84
2024/01/02 08:50:25;;;;;;;;;;;;;;;;;;5070657;28;19915;-85
2024/01/02 08:52:51;;;;;;;;;;;;;;;;;;5071732;28;20015;-85
2024/01/02 08:55:16;;;;;;;;;;;;;;;;;;5073664;28;19915;-85
2024/01/02 08:57:41;;;;;;;;;;;;;;;;;;5074905;28;20003;-84
2024/01/02 09:00:07;;;;;;;;;;;;;;;;;;5073620;28;19916;-85
2024/01/02 09:02:32;;;;;;;;;;;;;;;;;;5073128;28;19909;-84
2024/01/02 09:04:57;;;;;;;;;;;;;;;;;;5073183;28;19919;-85
2024/01/02 09:07:22;;;;;;;;;;;;;;;;;;5073360;28;19909;-84
2024/01/02 09:09:48;;;;;;;;;;;;;;;;;;5074649;28;19924;-85
2024/01/02 09:12:13;;;;;;;;;;;;;;;;;;5072987;28;19944;-84
2024/01/02 09:14:39;;;;;;;;;;;;;;;;;;5073259;28;19968;-85
2024/01/02 09:17:04;;;;;;;;;;;;;;;;;;5073500;28;19913;-86
2024/01/02 09:19:30;;;;;;;;;;;;;;;;;;5073074;28;19908;-86
2024/01/02 09:21:55;;;;;;;;;;;;;;;;;;5072516;28;20295;-84
2024/01/02 09:24:20;;;;;;;;;;;;;;;;;;5073049;28;19912;-85
2024/01/02 09:26:45;;;;;;;;;;;;;;;;;;5073237;28;20290;-84
2024/01/02 09:29:10;;;;;;;;;;;;;;;;;;5074118;28;19915;-85
2024/01/02 09:31:35;;;;;;;;;;;;;;;;;;5072849;28;19912;-85
2024/01/02 09:34:00;;;;;;;;;;;;;;;;;;5072587;28;20293;-84
2024/01/02 09:36:29;;;;;;;;;;;;;;;;;;5072762;28;19913;-84
2024/01/02 09:38:54;;;;;;;;;;;;;;;;;;5072712;28;19916;-84
2024/01/02 09:41:20;;;;;;;;;;;;;;;;;;5070823;28;19974;-85
2024/01/02 09:43:45;;;;;;;;;;;;;;;;;;5068496;28;19912;-84
2024/01/02 09:46:11;;;;;;;;;;;;;;;;;;5072389;28;19912;-84
2024/01/02 09:48:36;;;;;;;;;;;;;;;;;;5077353;28;19913;-84
2024/01/02 09:51:01;;;;;;;;;;;;;;;;;;5072280;28;19996;-84
2024/01/02 09:53:26;;;;;;;;;;;;;;;;;;5073547;28;19913;-85
2024/01/02 09:55:52;;;;;;;;;;;;;;;;;;5074150;28;19916;-86
2024/01/02 09:58:17;;;;;;;;;;;;;;;;;;5072515;28;20370;-84
2024/01/02 10:00:44;;;;;;;;;;;;;;;;;;5072136;28;19954;-83
2024/01/02 10:03:10;;;;;;;;;;;;;;;;;;5071582;28;20284;-83
2024/01/02 10:05:35;;;;;;;;;;;;;;;;;;5072985;28;19916;-83
2024/01/02 10:08:00;;;;;;;;;;;;;;;;;;5072171;28;20394;-85
2024/01/02 10:10:25;;;;;;;;;;;;;;;;;;5072499;28;19978;-84
2024/01/02 10:12:51;;;;;;;;;;;;;;;;;;5072446;28;20387;-84
2024/01/02 10:15:16;;;;;;;;;;;;;;;;;;5078527;28;19919;-85
2024/01/02 10:17:41;;;;;;;;;;;;;;;;;;5072004;28;19946;-85
2024/01/02 10:20:07;;;;;;;;;;;;;;;;;;5075792;28;19995;-85
2024/01/02 10:22:38;;;;;;;;;;;;;;;;;;5085523;28;20004;-84
2024/01/02 10:25:05;;;;;;;;;;;;;;;;;;5073702;28;19912;-84
2024/01/02 10:27:31;;;;;;;;;;;;;;;;;;5072740;28;19916;-85
2024/01/02 10:29:56;;;;;;;;;;;;;;;;;;5080082;28;19908;-84
2024/01/02 10:32:21;;;;;;;;;;;;;;;;;;5071108;28;19914;-86
2024/01/02 10:34:46;;;;;;;;;;;;;;;;;;5077541;28;20272;-85
2024/01/02 10:37:11;;;;;;;;;;;;;;;;;;5069845;28;19913;-85
2024/01/02 10:39:37;;;;;;;;;;;;;;;;;;5071909;28;19912;-86
2024/01/02 10:42:02;;;;;;;;;;;;;;;;;;5074528;28;20291;-85
2024/01/02 10:44:27;;;;;;;;;;;;;;;;;;5078271;28;19909;-86
2024/01/02 10:46:52;;;;;;;;;;;;;;;;;;5079935;28;19912;-85
2024/01/02 10:49:17;;;;;;;;;;;;;;;;;;5079766;28;20418;-85
2024/01/02 10:51:42;;;;;;;;;;;;;;;;;;5070145;28;19915;-86
2024/01/02 10:54:07;;;;;;;;;;;;;;;;;;5071224;28;20267;-85
2024/01/02 10:56:32;;;;;;;;;;;;;;;;;;5072559;28;19916;-84
2024/01/02 10:58:58;;;;;;;;;;;;;;;;;;5069222;28;19965;-85
2024/01/02 11:01:23;;;;;;;;;;;;;;;;;;5075729;28;19908;-88
2024/01/02 11:03:49;;;;;;;;;;;;;;;;;;5074828;28;19909;-85
2024/01/02 11:06:16;;;;;;;;;;;;;;;;;;5074368;28;19909;-87
2024/01/02 11:08:41;;;;;;;;;;;;;;;;;;5075731;28;19993;-88
2024/01/02 11:11:07;;;;;;;;;;;;;;;;;;5078926;28;19913;-85
2024/01/02 11:13:34;;;;;;;;;;;;;;;;;;5072481;28;20290;-83
2024/01/02 11:15:59;;;;;;;;;;;;;;;;;;5072216;28;19919;-87
2024/01/02 11:18:24;;;;;;;;;;;;;;;;;;5070923;28;19909;-84
2024/01/02 11:20:50;;;;;;;;;;;;;;;;;;5068936;28;19922;-83
2024/01/02 11:23:15;;;;;;;;;;;;;;;;;;5071713;28;19908;-84
2024/01/02 11:25:40;;;;;;;;;;;;;;;;;;5071115;28;19953;-84
2024/01/02 11:28:05;;;;;;;;;;;;;;;;;;5072042;28;19909;-83
2024/01/02 11:30:30;;;;;;;;;;;;;;;;;;5072268;28;19916;-84
2024/01/02 11:32:55;;;;;;;;;;;;;;;;;;5069714;28;19940;-84
2024/01/02 11:35:22;;;;;;;;;;;;;;;;;;5079128;28;19974;-91
2024/01/02 11:37:47;;;;;;;;;;;;;;;;;;5069587;28;20330;-90
2024/01/02 11:40:12;;;;;;;;;;;;;;;;;;5070474;28;20100;-84
2024/01/02 11:42:38;;;;;;;;;;;;;;;;;;5071872;28;19973;-84
2024/01/02 11:45:04;;;;;;;;;;;;;;;;;;5070260;28;19982;-84
2024/01/02 11:47:29;;;;;;;;;;;;;;;;;;5070678;28;19916;-84
2024/01/02 11:49:54;;;;;;;;;;;;;;;;;;5070127;28;19909;-83
2024/01/02 11:52:19;;;;;;;;;;;;;;;;;;5070363;28;19916;-83
2024/01/02 11:54:44;;;;;;;;;;;;;;;;;;5070554;28;19935;-84
2024/01/02 11:57:09;;;;;;;;;;;;;;;;;;5071789;28;19913;-83
2024/01/02 11:59:34;;;;;;;;;;;;;;;;;;5070294;28;19948;-83
2024/01/02 12:02:00;;;;;;;;;;;;;;;;;;5070145;28;19999;-84
2024/01/02 12:04:25;;;;;;;;;;;;;;;;;;5070448;28;19908;-83
2024/01/02 12:06:50;;;;;;;;;;;;;;;;;;5070406;28;19915;-84
2024/01/02 12:09:15;;;;;;;;;;;;;;;;;;5070061;28;19919;-83
2024/01/02 12:11:40;;;;;;;;;;;;;;;;;;5070131;28;19908;-84
2024/01/02 12:14:05;;;;;;;;;;;;;;;;;;5066609;28;20298;-84
2024/01/02 12:16:30;;;;;;;;;;;;;;;;;;5071689;28;20006;-84
2024/01/02 12:18:55;;;;;;;;;;;;;;;;;;5072089;28;19954;-84
2024/01/02 12:21:21;;;;;;;;;;;;;;;;;;5075385;28;20008;-84
2024/01/02 12:23:49;;;;;;;;;;;;;;;;;;5073814;28;20264;-87
2024/01/02 12:26:14;;;;;;;;;;;;;;;;;;5073519;28;19948;-87
2024/01/02 12:28:39;;;;;;;;;;;;;;;;;;5074129;28;19915;-86
2024/01/02 12:31:05;;;;;;;;;;;;;;;;;;5073553;28;20393;-85
2024/01/02 12:33:30;;;;;;;;;;;;;;;;;;5073904;28;19966;-85
2024/01/02 12:35:55;;;;;;;;;;;;;;;;;;5073736;28;19909;-84
2024/01/02 12:38:21;;;;;;;;;;;;;;;;;;5077831;28;19908;-84
2024/01/02 12:40:47;;;;;;;;;;;;;;;;;;5064535;28;20280;-84
2024/01/02 12:43:12;;;;;;;;;;;;;;;;;;5064402;28;19912;-84
2024/01/02 12:45:37;;;;;;;;;;;;;;;;;;5068191;28;20065;-85
2024/01/02 12:48:02;;;;;;;;;;;;;;;;;;5072883;28;19912;-85
2024/01/02 12:50:29;;;;;;;;;;;;;;;;;;5073617;28;20371;-85
2024/01/02 12:52:54;;;;;;;;;;;;;;;;;;5074175;28;19916;-85
2024/01/02 12:55:20;;;;;;;;;;;;;;;;;;5073612;28;19909;-85
2024/01/02 12:57:45;;;;;;;;;;;;;;;;;;5073464;28;19913;-84
2024/01/02 13:00:10;;;;;;;;;;;;;;;;;;5073321;28;19966;-85
2024/01/02 13:02:38;;;;;;;;;;;;;;;;;;5073009;28;19908;-85
2024/01/02 13:05:03;;;;;;;;;;;;;;;;;;5073485;28;19908;-85
2024/01/02 13:07:30;;;;;;;;;;;;;;;;;;5071885;28;19916;-85
2024/01/02 13:09:56;;;;;;;;;;;;;;;;;;5071745;28;20375;-86
2024/01/02 13:12:23;;;;;;;;;;;;;;;;;;5068697;28;19920;-86
2024/01/02 13:14:48;;;;;;;;;;;;;;;;;;5063500;28;20396;-84
2024/01/02 13:17:13;;;;;;;;;;;;;;;;;;5073096;28;19995;-88
2024/01/02 13:19:40;;;;;;;;;;;;;;;;;;5073305;28;19909;-89
2024/01/02 13:22:05;;;;;;;;;;;;;;;;;;5080764;28;19908;-90
2024/01/02 13:24:30;;;;;;;;;;;;;;;;;;5080720;28;19915;-86
2024/01/02 13:26:55;;;;;;;;;;;;;;;;;;5072941;28;20286;-86
2024/01/02 13:29:20;;;;;;;;;;;;;;;;;;5072318;28;19913;-86
2024/01/02 13:31:45;;;;;;;;;;;;;;;;;;5072525;28;19908;-86
2024/01/02 13:34:10;;;;;;;;;;;;;;;;;;5081238;28;19939;-85
2024/01/02 13:36:35;;;;;;;;;;;;;;;;;;5074024;28;19913;-86
2024/01/02 13:39:00;;;;;;;;;;;;;;;;;;5072545;28;19913;-86
2024/01/02 13:41:28;;;;;;;;;;;;;;;;;;5072703;28;19946;-85
2024/01/02 13:43:53;;;;;;;;;;;;;;;;;;5073882;28;19916;-86
2024/01/02 13:46:21;;;;;;;;;;;;;;;;;;5072887;28;19909;-85
2024/01/02 13:48:47;;;;;;;;;;;;;;;;;;5072556;28;20363;-86
2024/01/02 13:51:12;;;;;;;;;;;;;;;;;;5073404;28;20444;-86
2024/01/02 13:53:37;;;;;;;;;;;;;;;;;;5072583;28;19916;-86
2024/01/02 13:56:02;;;;;;;;;;;;;;;;;;5073590;28;19918;-87
2024/01/02 13:58:27;;;;;;;;;;;;;;;;;;5072343;28;19943;-86
2024/01/02 14:00:52;;;;;;;;;;;;;;;;;;5073783;28;19908;-86
2024/01/02 14:03:17;;;;;;;;;;;;;;;;;;5080361;28;19919;-86
2024/01/02 14:05:45;;;;;;;;;;;;;;;;;;5072125;28;19908;-87
2024/01/02 14:08:10;;;;;;;;;;;;;;;;;;5072432;28;19916;-86
2024/01/02 14:10:38;;;;;;;;;;;;;;;;;;5079871;28;19986;-86
2024/01/02 14:13:03;;;;;;;;;;;;;;;;;;5074535;28;19932;-86
2024/01/02 14:15:28;;;;;;;;;;;;;;;;;;5072429;28;19912;-87
2024/01/02 14:17:53;;;;;;;;;;;;;;;;;;5071936;28;19919;-87
2024/01/02 14:20:18;;;;;;;;;;;;;;;;;;5071939;28;19916;-87
2024/01/02 14:22:44;;;;;;;;;;;;;;;;;;5071929;28;20310;-86
2024/01/02 14:25:09;;;;;;;;;;;;;;;;;;5073038;28;19931;-87
2024/01/02 14:27:34;;;;;;;;;;;;;;;;;;5071838;28;19915;-86
2024/01/02 14:29:59;;;;;;;;;;;;;;;;;;5072919;28;20256;-87
2024/01/02 14:32:24;;;;;;;;;;;;;;;;;;5072589;28;20351;-86
2024/01/02 14:34:49;;;;;;;;;;;;;;;;;;5071750;28;19908;-85
2024/01/02 14:37:15;;;;;;;;;;;;;;;;;;5071885;28;19916;-86
2024/01/02 14:39:41;;;;;;;;;;;;;;;;;;5072980;28;19915;-87
2024/01/02 14:42:06;;;;;;;;;;;;;;;;;;5071843;28;19908;-86
2024/01/02 14:44:31;;;;;;;;;;;;;;;;;;5071603;28;19953;-86
2024/01/02 14:46:57;;;;;;;;;;;;;;;;;;5071353;28;20268;-86
2024/01/02 14:49:22;;;;;;;;;;;;;;;;;;5071221;28;19909;-87
2024/01/02 14:51:47;;;;;;;;;;;;;;;;;;5071085;28;20349;-86
2024/01/02 14:54:12;;;;;;;;;;;;;;;;;;5071657;28;20432;-87
2024/01/02 14:56:37;;;;;;;;;;;;;;;;;;5071456;28;20054;-87
2024/01/02 14:59:02;;;;;;;;;;;;;;;;;;5072271;28;19914;-87
2024/01/02 15:01:27;;;;;;;;;;;;;;;;;;5070983;28;19915;-87
2024/01/02 15:03:53;;;;;;;;;;;;;;;;;;5071277;28;19915;-86
2024/01/02 15:06:18;;;;;;;;;;;;;;;;;;5072286;28;19915;-87
2024/01/02 15:08:44;;;;;;;;;;;;;;;;;;5071373;28;19947;-87
2024/01/02 15:11:09;;;;;;;;;;;;;;;;;;5071037;28;19915;-86
2024/01/02 15:13:34;;;;;;;;;;;;;;;;;;5072336;28;19909;-86
2024/01/02 15:15:59;;;;;;;;;;;;;;;;;;5070931;28;20375;-87
2024/01/02 15:18:24;;;;;;;;;;;;;;;;;;5071090;28;20302;-86
2024/01/02 15:20:49;;;;;;;;;;;;;;;;;;5070603;28;19931;-85
2024/01/02 15:23:15;;;;;;;;;;;;;;;;;;5071374;28;19908;-86
2024/01/02 15:25:40;;;;;;;;;;;;;;;;;;5072267;28;19915;-86
2024/01/02 15:28:05;;;;;;;;;;;;;;;;;;5070879;28;19909;-86
2024/01/02 15:30:30;;;;;;;;;;;;;;;;;;5070934;28;20285;-86
2024/01/02 15:32:55;;;;;;;;;;;;;;;;;;5071295;28;19922;-86
2024/01/02 15:35:20;;;;;;;;;;;;;;;;;;5078354;28;19915;-86
2024/01/02 15:37:45;;;;;;;;;;;;;;;;;;5070852;28;19963;-86
2024/01/02 15:40:10;;;;;;;;;;;;;;;;;;5070920;28;19917;-86
2024/01/02 15:42:35;;;;;;;;;;;;;;;;;;5070747;28;19947;-86
2024/01/02 15:45:01;;;;;;;;;;;;;;;;;;5071990;28;20272;-85
2024/01/02 15:47:26;;;;;;;;;;;;;;;;;;5070993;28;19909;-86
2024/01/02 15:49:51;;;;;;;;;;;;;;;;;;5070432;28;20054;-86
2024/01/02 15:52:16;;;;;;;;;;;;;;;;;;5070555;28;19965;-86
2024/01/02 15:54:41;;;;;;;;;;;;;;;;;;5073370;28;20264;-86
2024/01/02 15:57:07;;;;;;;;;;;;;;;;;;5076472;28;19913;-86
2024/01/02 15:59:32;;;;;;;;;;;;;;;;;;5075059;28;19909;-86
2024/01/02 16:01:57;;;;;;;;;;;;;;;;;;5074509;28;19919;-86
2024/01/02 16:04:22;;;;;;;;;;;;;;;;;;5074771;28;20341;-87
2024/01/02 16:06:47;;;;;;;;;;;;;;;;;;5074824;28;20594;-87
2024/01/02 16:09:12;;;;;;;;;;;;;;;;;;5074665;28;20333;-86
2024/01/02 16:11:37;;;;;;;;;;;;;;;;;;5074322;28;19912;-85
2024/01/02 16:14:04;;;;;;;;;;;;;;;;;;5074517;28;19930;-87
2024/01/02 16:16:29;;;;;;;;;;;;;;;;;;5074382;28;19916;-86
2024/01/02 16:18:54;;;;;;;;;;;;;;;;;;5074256;28;19954;-86
2024/01/02 16:21:20;;;;;;;;;;;;;;;;;;5073965;28;19912;-86
2024/01/02 16:23:45;;;;;;;;;;;;;;;;;;5074603;28;20398;-86
2024/01/02 16:26:10;;;;;;;;;;;;;;;;;;5075525;28;20054;-86
2024/01/02 16:28:36;;;;;;;;;;;;;;;;;;5074074;28;19908;-86
2024/01/02 16:31:01;;;;;;;;;;;;;;;;;;5073695;28;19909;-86